Terminal Aerodrome Forecast
Issued by NWS

Home | Current Version | Previous Version | Text Only | Print | Product List | Glossary Off
Versions: 1 2 3 4 5 6 7 8 9 10 11 12 13 14

000
FTUS45 KGGW 262320
TAFGDV
TAF
KGDV 262320Z 2700/2724 33011KT P6SM BKN026 OVC040
     FM270600 04006KT 4SM -SHSN OVC025
     FM271400 04010KT 3/4SM -SHSN SCT002 OVC004=

USA.gov is the U.S. government's official web portal to all federal, state and local government web resources and services.